sensor_id;sensor_type;location;lat;lon;timestamp;temperature;humidity
48912;DHT22;34722;52.108;5.044;2023-04-24T00:20:12;9.60;99.90
48912;DHT22;34722;52.108;5.044;2023-04-24T05:55:17;9.20;99.90
48912;DHT22;34722;52.108;5.044;2023-04-24T06:04:43;9.30;99.90
48912;DHT22;34722;52.108;5.044;2023-04-24T06:10:25;9.30;99.90
48912;DHT22;34722;52.108;5.044;2023-04-24T06:12:51;9.30;99.90
48912;DHT22;34722;52.108;5.044;2023-04-24T06:15:33;9.30;99.90
48912;DHT22;34722;52.108;5.044;2023-04-24T06:18:02;9.20;99.90
48912;DHT22;34722;52.108;5.044;2023-04-24T06:21:15;9.20;99.90
48912;DHT22;34722;52.108;5.044;2023-04-24T06:24:02;9.20;99.90
48912;DHT22;34722;52.108;5.044;2023-04-24T06:33:21;9.10;99.90
48912;DHT22;34722;52.108;5.044;2023-04-24T06:35:54;9.10;99.90
48912;DHT22;34722;52.108;5.044;2023-04-24T06:38:30;9.10;99.90
48912;DHT22;34722;52.108;5.044;2023-04-24T06:41:04;9.10;99.90
48912;DHT22;34722;52.108;5.044;2023-04-24T06:43:36;9.00;99.90
48912;DHT22;34722;52.108;5.044;2023-04-24T06:53:17;9.00;99.90
48912;DHT22;34722;52.108;5.044;2023-04-24T07:02:42;9.00;99.90
48912;DHT22;34722;52.108;5.044;2023-04-24T07:10:29;9.00;99.90
48912;DHT22;34722;52.108;5.044;2023-04-24T07:12:59;9.00;99.90
48912;DHT22;34722;52.108;5.044;2023-04-24T07:15:27;9.00;99.90
48912;DHT22;34722;52.108;5.044;2023-04-24T07:17:53;9.10;99.90
48912;DHT22;34722;52.108;5.044;2023-04-24T07:20:19;9.10;99.90
48912;DHT22;34722;52.108;5.044;2023-04-24T07:22:44;9.10;99.90
48912;DHT22;34722;52.108;5.044;2023-04-24T07:25:10;9.00;99.90
48912;DHT22;34722;52.108;5.044;2023-04-24T07:27:36;9.10;99.90
48912;DHT22;34722;52.108;5.044;2023-04-24T07:30:03;9.10;99.90
48912;DHT22;34722;52.108;5.044;2023-04-24T07:32:29;9.10;99.90
48912;DHT22;34722;52.108;5.044;2023-04-24T07:34:55;9.10;99.90
48912;DHT22;34722;52.108;5.044;2023-04-24T07:37:24;9.10;99.90
48912;DHT22;34722;52.108;5.044;2023-04-24T07:39:49;9.10;99.90
48912;DHT22;34722;52.108;5.044;2023-04-24T07:42:15;9.20;99.90
48912;DHT22;34722;52.108;5.044;2023-04-24T07:44:41;9.20;99.90
48912;DHT22;34722;52.108;5.044;2023-04-24T07:47:10;9.20;99.90
48912;DHT22;34722;52.108;5.044;2023-04-24T07:52:45;9.20;99.90
48912;DHT22;34722;52.108;5.044;2023-04-24T07:55:10;9.20;99.90
48912;DHT22;34722;52.108;5.044;2023-04-24T07:57:36;9.20;99.90
48912;DHT22;34722;52.108;5.044;2023-04-24T08:00:03;9.20;99.90
48912;DHT22;34722;52.108;5.044;2023-04-24T08:02:31;9.20;99.90
48912;DHT22;34722;52.108;5.044;2023-04-24T08:05:03;9.20;99.90
48912;DHT22;34722;52.108;5.044;2023-04-24T08:07:39;9.20;99.90
48912;DHT22;34722;52.108;5.044;2023-04-24T08:10:35;9.20;99.90
48912;DHT22;34722;52.108;5.044;2023-04-24T08:13:04;9.20;99.90
48912;DHT22;34722;52.108;5.044;2023-04-24T08:15:42;9.20;99.90
48912;DHT22;34722;52.108;5.044;2023-04-24T08:18:17;9.20;99.90
48912;DHT22;34722;52.108;5.044;2023-04-24T08:20:54;9.30;99.90
48912;DHT22;34722;52.108;5.044;2023-04-24T08:23:31;9.30;99.90
48912;DHT22;34722;52.108;5.044;2023-04-24T08:25:56;9.30;99.90
48912;DHT22;34722;52.108;5.044;2023-04-24T08:28:23;9.40;99.90
48912;DHT22;34722;52.108;5.044;2023-04-24T08:30:49;9.50;99.90
48912;DHT22;34722;52.108;5.044;2023-04-24T08:33:20;9.50;99.90
48912;DHT22;34722;52.108;5.044;2023-04-24T08:35:52;9.60;99.90
48912;DHT22;34722;52.108;5.044;2023-04-24T08:38:26;9.70;99.90
48912;DHT22;34722;52.108;5.044;2023-04-24T08:40:59;9.70;99.90
48912;DHT22;34722;52.108;5.044;2023-04-24T08:43:46;9.70;99.90
48912;DHT22;34722;52.108;5.044;2023-04-24T08:46:13;9.70;99.90
48912;DHT22;34722;52.108;5.044;2023-04-24T08:48:39;9.70;99.90
48912;DHT22;34722;52.108;5.044;2023-04-24T08:51:07;9.70;99.90
48912;DHT22;34722;52.108;5.044;2023-04-24T08:53:34;9.60;99.90
48912;DHT22;34722;52.108;5.044;2023-04-24T08:56:04;9.50;99.90
48912;DHT22;34722;52.108;5.044;2023-04-24T09:05:47;9.20;99.90
48912;DHT22;34722;52.108;5.044;2023-04-24T09:08:19;9.20;99.90
48912;DHT22;34722;52.108;5.044;2023-04-24T09:10:54;9.30;99.90
48912;DHT22;34722;52.108;5.044;2023-04-24T09:13:24;9.60;99.90
48912;DHT22;34722;52.108;5.044;2023-04-24T09:15:51;9.80;99.90
48912;DHT22;34722;52.108;5.044;2023-04-24T09:18:17;10.20;99.90
48912;DHT22;34722;52.108;5.044;2023-04-24T09:21:06;10.50;99.90
48912;DHT22;34722;52.108;5.044;2023-04-24T09:23:33;10.50;99.90
48912;DHT22;34722;52.108;5.044;2023-04-24T09:26:01;10.30;99.90
48912;DHT22;34722;52.108;5.044;2023-04-24T09:28:34;10.00;99.90
48912;DHT22;34722;52.108;5.044;2023-04-24T09:31:17;10.00;99.90
48912;DHT22;34722;52.108;5.044;2023-04-24T09:34:26;10.40;99.90
48912;DHT22;34722;52.108;5.044;2023-04-24T09:36:53;10.90;99.90
48912;DHT22;34722;52.108;5.044;2023-04-24T09:39:28;11.10;99.90
48912;DHT22;34722;52.108;5.044;2023-04-24T09:41:55;11.00;99.90
48912;DHT22;34722;52.108;5.044;2023-04-24T09:44:41;10.80;99.90
48912;DHT22;34722;52.108;5.044;2023-04-24T09:47:08;10.70;99.90
48912;DHT22;34722;52.108;5.044;2023-04-24T09:49:37;10.50;99.90
48912;DHT22;34722;52.108;5.044;2023-04-24T09:52:06;10.20;99.90
48912;DHT22;34722;52.108;5.044;2023-04-24T09:54:32;10.00;99.90
48912;DHT22;34722;52.108;5.044;2023-04-24T09:56:58;9.90;99.90
48912;DHT22;34722;52.108;5.044;2023-04-24T09:59:26;10.00;99.90
48912;DHT22;34722;52.108;5.044;2023-04-24T10:01:51;10.00;99.90
48912;DHT22;34722;52.108;5.044;2023-04-24T10:04:20;9.70;99.90
48912;DHT22;34722;52.108;5.044;2023-04-24T10:06:47;9.60;99.90
48912;DHT22;34722;52.108;5.044;2023-04-24T10:09:14;9.60;99.90
48912;DHT22;34722;52.108;5.044;2023-04-24T10:11:49;9.90;99.90
48912;DHT22;34722;52.108;5.044;2023-04-24T10:14:17;10.30;99.90
48912;DHT22;34722;52.108;5.044;2023-04-24T10:16:44;10.70;99.90
48912;DHT22;34722;52.108;5.044;2023-04-24T10:19:19;10.90;99.90
48912;DHT22;34722;52.108;5.044;2023-04-24T10:21:48;10.70;99.90
48912;DHT22;34722;52.108;5.044;2023-04-24T10:24:17;10.60;99.90
48912;DHT22;34722;52.108;5.044;2023-04-24T10:26:47;10.70;99.90
48912;DHT22;34722;52.108;5.044;2023-04-24T10:29:16;10.90;99.90
48912;DHT22;34722;52.108;5.044;2023-04-24T10:31:43;11.00;99.90
48912;DHT22;34722;52.108;5.044;2023-04-24T10:34:13;11.10;99.90
48912;DHT22;34722;52.108;5.044;2023-04-24T10:37:00;11.10;99.90
48912;DHT22;34722;52.108;5.044;2023-04-24T10:39:26;11.50;99.90
48912;DHT22;34722;52.108;5.044;2023-04-24T10:41:53;12.50;99.90
48912;DHT22;34722;52.108;5.044;2023-04-24T10:44:23;13.90;50.70
48912;DHT22;34722;52.108;5.044;2023-04-24T10:46:55;15.50;99.90
48912;DHT22;34722;52.108;5.044;2023-04-24T10:49:31;17.10;99.90
48912;DHT22;34722;52.108;5.044;2023-04-24T10:52:04;17.60;99.90
48912;DHT22;34722;52.108;5.044;2023-04-24T10:54:41;16.90;99.90
48912;DHT22;34722;52.108;5.044;2023-04-24T10:59:49;13.50;99.90
48912;DHT22;34722;52.108;5.044;2023-04-24T11:02:15;12.40;1.00
48912;DHT22;34722;52.108;5.044;2023-04-24T11:04:41;11.70;1.00
48912;DHT22;34722;52.108;5.044;2023-04-24T11:07:09;11.30;1.00
48912;DHT22;34722;52.108;5.044;2023-04-24T11:09:36;11.00;1.00
48912;DHT22;34722;52.108;5.044;2023-04-24T11:12:07;10.70;59.40
48912;DHT22;34722;52.108;5.044;2023-04-24T11:17:29;10.20;99.90
48912;DHT22;34722;52.108;5.044;2023-04-24T11:20:07;9.90;99.90
48912;DHT22;34722;52.108;5.044;2023-04-24T11:22:40;10.00;99.90
48912;DHT22;34722;52.108;5.044;2023-04-24T11:25:06;10.10;99.90
48912;DHT22;34722;52.108;5.044;2023-04-24T11:27:43;10.60;99.90
48912;DHT22;34722;52.108;5.044;2023-04-24T11:30:09;11.60;75.90
48912;DHT22;34722;52.108;5.044;2023-04-24T11:32:42;12.40;1.00
48912;DHT22;34722;52.108;5.044;2023-04-24T11:35:16;13.30;1.00
48912;DHT22;34722;52.108;5.044;2023-04-24T11:37:44;14.50;99.90
48912;DHT22;34722;52.108;5.044;2023-04-24T11:40:19;14.70;1.00
48912;DHT22;34722;52.108;5.044;2023-04-24T11:43:00;13.90;99.90
48912;DHT22;34722;52.108;5.044;2023-04-24T11:45:27;14.00;99.90
48912;DHT22;34722;52.108;5.044;2023-04-24T11:47:53;14.00;99.90
48912;DHT22;34722;52.108;5.044;2023-04-24T11:50:22;13.50;99.90
48912;DHT22;34722;52.108;5.044;2023-04-24T11:52:53;13.40;99.90
48912;DHT22;34722;52.108;5.044;2023-04-24T11:55:29;13.20;1.00
48912;DHT22;34722;52.108;5.044;2023-04-24T11:57:57;13.30;1.00
48912;DHT22;34722;52.108;5.044;2023-04-24T12:00:28;13.20;99.90
48912;DHT22;34722;52.108;5.044;2023-04-24T12:03:11;13.00;1.00
48912;DHT22;34722;52.108;5.044;2023-04-24T12:05:37;13.40;99.90
48912;DHT22;34722;52.108;5.044;2023-04-24T12:08:04;13.60;99.90
48912;DHT22;34722;52.108;5.044;2023-04-24T12:10:31;13.50;99.90
48912;DHT22;34722;52.108;5.044;2023-04-24T12:12:58;13.60;1.00
48912;DHT22;34722;52.108;5.044;2023-04-24T12:15:26;13.60;1.00
48912;DHT22;34722;52.108;5.044;2023-04-24T12:17:53;15.20;99.90
48912;DHT22;34722;52.108;5.044;2023-04-24T12:20:30;15.60;1.00
48912;DHT22;34722;52.108;5.044;2023-04-24T12:23:00;14.50;99.90
48912;DHT22;34722;52.108;5.044;2023-04-24T12:25:31;13.20;1.00
48912;DHT22;34722;52.108;5.044;2023-04-24T12:30:30;12.30;1.00
48912;DHT22;34722;52.108;5.044;2023-04-24T12:33:00;12.30;1.00
48912;DHT22;34722;52.108;5.044;2023-04-24T12:35:31;12.00;99.90
48912;DHT22;34722;52.108;5.044;2023-04-24T12:38:09;11.60;99.90
48912;DHT22;34722;52.108;5.044;2023-04-24T12:40:35;11.20;99.90
48912;DHT22;34722;52.108;5.044;2023-04-24T12:43:01;11.10;1.00
48912;DHT22;34722;52.108;5.044;2023-04-24T12:45:27;11.10;1.00
48912;DHT22;34722;52.108;5.044;2023-04-24T12:47:53;11.00;1.00
48912;DHT22;34722;52.108;5.044;2023-04-24T12:50:22;10.80;1.00
48912;DHT22;34722;52.108;5.044;2023-04-24T12:52:47;10.50;1.00
48912;DHT22;34722;52.108;5.044;2023-04-24T12:55:13;10.30;1.00
48912;DHT22;34722;52.108;5.044;2023-04-24T12:57:39;10.40;1.00
48912;DHT22;34722;52.108;5.044;2023-04-24T13:00:07;10.40;1.00
48912;DHT22;34722;52.108;5.044;2023-04-24T13:02:33;10.70;1.00
48912;DHT22;34722;52.108;5.044;2023-04-24T13:05:00;11.10;1.00
48912;DHT22;34722;52.108;5.044;2023-04-24T13:10:01;12.40;1.00
48912;DHT22;34722;52.108;5.044;2023-04-24T13:12:26;12.90;99.90
48912;DHT22;34722;52.108;5.044;2023-04-24T13:14:55;12.90;1.00
48912;DHT22;34722;52.108;5.044;2023-04-24T13:17:41;12.70;33.70
48912;DHT22;34722;52.108;5.044;2023-04-24T13:20:08;12.40;99.90
48912;DHT22;34722;52.108;5.044;2023-04-24T13:22:42;12.30;99.90
48912;DHT22;34722;52.108;5.044;2023-04-24T13:25:11;12.40;1.00
48912;DHT22;34722;52.108;5.044;2023-04-24T13:27:57;12.80;1.00
48912;DHT22;34722;52.108;5.044;2023-04-24T13:30:26;12.70;1.00
48912;DHT22;34722;52.108;5.044;2023-04-24T13:32:51;12.70;99.90
48912;DHT22;34722;52.108;5.044;2023-04-24T13:35:17;12.50;99.90
48912;DHT22;34722;52.108;5.044;2023-04-24T13:37:43;12.90;1.00
48912;DHT22;34722;52.108;5.044;2023-04-24T13:40:09;12.50;1.00
48912;DHT22;34722;52.108;5.044;2023-04-24T13:42:39;12.40;99.90
48912;DHT22;34722;52.108;5.044;2023-04-24T13:45:08;12.60;1.00
48912;DHT22;34722;52.108;5.044;2023-04-24T13:47:36;12.90;99.90
48912;DHT22;34722;52.108;5.044;2023-04-24T13:50:51;13.20;1.00
48912;DHT22;34722;52.108;5.044;2023-04-24T13:53:17;13.00;99.90
48912;DHT22;34722;52.108;5.044;2023-04-24T13:55:45;12.80;99.90
48912;DHT22;34722;52.108;5.044;2023-04-24T14:00:40;12.70;1.00
48912;DHT22;34722;52.108;5.044;2023-04-24T14:03:06;12.70;1.00
48912;DHT22;34722;52.108;5.044;2023-04-24T14:05:36;12.40;99.90
48912;DHT22;34722;52.108;5.044;2023-04-24T14:08:02;12.20;28.30
48912;DHT22;34722;52.108;5.044;2023-04-24T14:10:30;12.10;99.90
48912;DHT22;34722;52.108;5.044;2023-04-24T14:12:57;12.10;99.90
48912;DHT22;34722;52.108;5.044;2023-04-24T14:15:23;12.00;99.90
48912;DHT22;34722;52.108;5.044;2023-04-24T14:17:50;12.00;1.00
48912;DHT22;34722;52.108;5.044;2023-04-24T14:20:22;12.30;99.90
48912;DHT22;34722;52.108;5.044;2023-04-24T14:54:14;12.20;92.50
48912;DHT22;34722;52.108;5.044;2023-04-24T14:56:39;12.60;99.90
48912;DHT22;34722;52.108;5.044;2023-04-24T14:59:06;12.30;99.90
48912;DHT22;34722;52.108;5.044;2023-04-24T15:01:32;11.90;99.90
48912;DHT22;34722;52.108;5.044;2023-04-24T15:04:00;12.00;99.90
48912;DHT22;34722;52.108;5.044;2023-04-24T15:06:26;11.90;99.90
48912;DHT22;34722;52.108;5.044;2023-04-24T15:08:56;12.00;99.90
48912;DHT22;34722;52.108;5.044;2023-04-24T15:11:34;11.90;99.90
48912;DHT22;34722;52.108;5.044;2023-04-24T15:14:04;11.80;99.90
48912;DHT22;34722;52.108;5.044;2023-04-24T15:16:49;11.50;99.90
48912;DHT22;34722;52.108;5.044;2023-04-24T15:19:24;11.30;99.90
48912;DHT22;34722;52.108;5.044;2023-04-24T15:21:51;11.60;1.00
48912;DHT22;34722;52.108;5.044;2023-04-24T15:24:17;11.90;99.90
48912;DHT22;34722;52.108;5.044;2023-04-24T15:26:42;11.80;99.90
48912;DHT22;34722;52.108;5.044;2023-04-24T15:29:11;11.60;1.00
48912;DHT22;34722;52.108;5.044;2023-04-24T15:31:39;11.30;99.90
48912;DHT22;34722;52.108;5.044;2023-04-24T15:34:05;11.20;99.90
48912;DHT22;34722;52.108;5.044;2023-04-24T15:36:31;11.20;1.00
48912;DHT22;34722;52.108;5.044;2023-04-24T15:38:57;11.10;1.00
48912;DHT22;34722;52.108;5.044;2023-04-24T15:41:23;10.90;1.00
48912;DHT22;34722;52.108;5.044;2023-04-24T15:43:48;10.90;99.90
48912;DHT22;34722;52.108;5.044;2023-04-24T15:46:14;11.00;99.90
48912;DHT22;34722;52.108;5.044;2023-04-24T15:48:42;11.10;99.90
48912;DHT22;34722;52.108;5.044;2023-04-24T15:51:07;11.10;99.90
48912;DHT22;34722;52.108;5.044;2023-04-24T15:53:33;11.00;1.00
48912;DHT22;34722;52.108;5.044;2023-04-24T15:55:59;10.80;99.90
48912;DHT22;34722;52.108;5.044;2023-04-24T15:58:25;10.60;1.00
48912;DHT22;34722;52.108;5.044;2023-04-24T16:00:51;10.70;1.00
48912;DHT22;34722;52.108;5.044;2023-04-24T16:03:19;10.80;99.90
48912;DHT22;34722;52.108;5.044;2023-04-24T16:05:45;10.60;99.90
48912;DHT22;34722;52.108;5.044;2023-04-24T16:08:10;10.60;99.90
48912;DHT22;34722;52.108;5.044;2023-04-24T16:10:36;10.70;99.90
48912;DHT22;34722;52.108;5.044;2023-04-24T16:13:02;10.70;99.90
48912;DHT22;34722;52.108;5.044;2023-04-24T16:15:29;10.70;99.90
48912;DHT22;34722;52.108;5.044;2023-04-24T16:17:55;10.90;99.90
48912;DHT22;34722;52.108;5.044;2023-04-24T16:20:21;11.00;99.90
48912;DHT22;34722;52.108;5.044;2023-04-24T16:22:47;11.20;99.90
48912;DHT22;34722;52.108;5.044;2023-04-24T16:25:15;11.30;99.90
48912;DHT22;34722;52.108;5.044;2023-04-24T16:27:42;11.40;99.90
48912;DHT22;34722;52.108;5.044;2023-04-24T16:30:08;11.20;86.20
48912;DHT22;34722;52.108;5.044;2023-04-24T16:32:37;11.10;7.50
48912;DHT22;34722;52.108;5.044;2023-04-24T16:35:03;11.10;99.90
48912;DHT22;34722;52.108;5.044;2023-04-24T16:37:29;10.80;99.90
48912;DHT22;34722;52.108;5.044;2023-04-24T16:39:55;10.70;1.00
48912;DHT22;34722;52.108;5.044;2023-04-24T16:42:21;10.60;1.00
48912;DHT22;34722;52.108;5.044;2023-04-24T16:44:47;10.40;1.00
48912;DHT22;34722;52.108;5.044;2023-04-24T16:47:13;10.30;1.00
48912;DHT22;34722;52.108;5.044;2023-04-24T16:49:40;10.10;1.00
48912;DHT22;34722;52.108;5.044;2023-04-24T16:52:06;10.20;1.00
48912;DHT22;34722;52.108;5.044;2023-04-24T16:54:32;10.20;1.00
48912;DHT22;34722;52.108;5.044;2023-04-24T16:57:01;10.20;1.00
48912;DHT22;34722;52.108;5.044;2023-04-24T16:59:28;10.20;1.00
48912;DHT22;34722;52.108;5.044;2023-04-24T17:01:55;10.00;1.00
48912;DHT22;34722;52.108;5.044;2023-04-24T17:04:21;10.00;1.00
48912;DHT22;34722;52.108;5.044;2023-04-24T17:06:47;9.80;1.00
48912;DHT22;34722;52.108;5.044;2023-04-24T17:09:13;9.90;1.00
48912;DHT22;34722;52.108;5.044;2023-04-24T17:11:40;9.80;1.00
48912;DHT22;34722;52.108;5.044;2023-04-24T17:14:06;9.80;1.00
48912;DHT22;34722;52.108;5.044;2023-04-24T17:16:38;9.80;1.00
48912;DHT22;34722;52.108;5.044;2023-04-24T17:19:10;9.80;1.00
48912;DHT22;34722;52.108;5.044;2023-04-24T17:21:37;9.80;1.00
48912;DHT22;34722;52.108;5.044;2023-04-24T19:09:52;8.00;99.90
48912;DHT22;34722;52.108;5.044;2023-04-24T19:12:18;7.90;99.90
48912;DHT22;34722;52.108;5.044;2023-04-24T19:14:45;7.90;99.90
48912;DHT22;34722;52.108;5.044;2023-04-24T19:17:10;7.80;99.90
48912;DHT22;34722;52.108;5.044;2023-04-24T19:19:43;7.80;99.90
48912;DHT22;34722;52.108;5.044;2023-04-24T19:22:08;7.80;99.90
48912;DHT22;34722;52.108;5.044;2023-04-24T19:24:34;7.80;99.90
48912;DHT22;34722;52.108;5.044;2023-04-24T19:27:00;7.80;99.90
48912;DHT22;34722;52.108;5.044;2023-04-24T19:29:26;7.80;99.90
48912;DHT22;34722;52.108;5.044;2023-04-24T19:31:54;7.80;99.90
48912;DHT22;34722;52.108;5.044;2023-04-24T19:34:27;7.80;99.90
48912;DHT22;34722;52.108;5.044;2023-04-24T19:36:55;7.80;99.90
48912;DHT22;34722;52.108;5.044;2023-04-24T19:39:20;7.90;99.90
48912;DHT22;34722;52.108;5.044;2023-04-24T19:41:46;7.90;99.90
48912;DHT22;34722;52.108;5.044;2023-04-24T19:44:12;7.90;99.90
48912;DHT22;34722;52.108;5.044;2023-04-24T19:46:53;7.90;99.90
48912;DHT22;34722;52.108;5.044;2023-04-24T19:49:19;7.90;99.90
48912;DHT22;34722;52.108;5.044;2023-04-24T19:51:44;7.90;99.90
48912;DHT22;34722;52.108;5.044;2023-04-24T19:54:10;7.80;99.90
48912;DHT22;34722;52.108;5.044;2023-04-24T19:56:37;7.80;99.90
48912;DHT22;34722;52.108;5.044;2023-04-24T19:59:05;7.70;99.90
48912;DHT22;34722;52.108;5.044;2023-04-24T20:01:39;7.60;99.90
48912;DHT22;34722;52.108;5.044;2023-04-24T20:04:15;7.60;99.90
48912;DHT22;34722;52.108;5.044;2023-04-24T20:06:50;7.50;99.90
48912;DHT22;34722;52.108;5.044;2023-04-24T20:09:16;7.40;99.90
48912;DHT22;34722;52.108;5.044;2023-04-24T20:11:43;7.30;99.90
48912;DHT22;34722;52.108;5.044;2023-04-24T20:14:10;7.30;99.90
48912;DHT22;34722;52.108;5.044;2023-04-24T20:16:36;7.30;99.90
48912;DHT22;34722;52.108;5.044;2023-04-24T20:19:03;7.40;99.90
48912;DHT22;34722;52.108;5.044;2023-04-24T20:21:28;7.50;99.90
48912;DHT22;34722;52.108;5.044;2023-04-24T20:24:15;7.50;99.90
48912;DHT22;34722;52.108;5.044;2023-04-24T20:26:41;7.60;99.90
48912;DHT22;34722;52.108;5.044;2023-04-24T20:29:07;7.60;99.90
48912;DHT22;34722;52.108;5.044;2023-04-24T20:31:35;7.50;99.90
48912;DHT22;34722;52.108;5.044;2023-04-24T20:34:01;7.60;99.90
48912;DHT22;34722;52.108;5.044;2023-04-24T20:36:27;7.50;99.90
48912;DHT22;34722;52.108;5.044;2023-04-24T20:38:56;7.50;99.90
48912;DHT22;34722;52.108;5.044;2023-04-24T20:41:22;7.50;99.90
48912;DHT22;34722;52.108;5.044;2023-04-24T20:43:49;7.40;99.90
48912;DHT22;34722;52.108;5.044;2023-04-24T20:46:14;7.40;99.90
48912;DHT22;34722;52.108;5.044;2023-04-24T20:48:44;7.40;99.90
48912;DHT22;34722;52.108;5.044;2023-04-24T20:51:15;7.40;99.90
48912;DHT22;34722;52.108;5.044;2023-04-24T20:53:41;7.40;99.90
48912;DHT22;34722;52.108;5.044;2023-04-24T20:56:08;7.40;99.90
48912;DHT22;34722;52.108;5.044;2023-04-24T20:58:38;7.40;99.90
48912;DHT22;34722;52.108;5.044;2023-04-24T21:01:04;7.30;99.90
48912;DHT22;34722;52.108;5.044;2023-04-24T21:03:30;7.30;99.90
48912;DHT22;34722;52.108;5.044;2023-04-24T21:05:55;7.20;99.90
48912;DHT22;34722;52.108;5.044;2023-04-24T21:08:21;7.20;99.90
48912;DHT22;34722;52.108;5.044;2023-04-24T21:10:47;7.10;99.90
48912;DHT22;34722;52.108;5.044;2023-04-24T21:13:16;7.10;99.90
48912;DHT22;34722;52.108;5.044;2023-04-24T21:15:42;7.10;99.90
48912;DHT22;34722;52.108;5.044;2023-04-24T21:18:08;7.00;99.90
48912;DHT22;34722;52.108;5.044;2023-04-24T21:20:37;7.10;99.90
48912;DHT22;34722;52.108;5.044;2023-04-24T21:23:03;7.10;99.90
48912;DHT22;34722;52.108;5.044;2023-04-24T21:25:30;7.20;99.90
48912;DHT22;34722;52.108;5.044;2023-04-24T21:27:57;7.20;99.90
48912;DHT22;34722;52.108;5.044;2023-04-24T21:30:23;7.20;99.90
48912;DHT22;34722;52.108;5.044;2023-04-24T21:32:50;7.20;99.90
48912;DHT22;34722;52.108;5.044;2023-04-24T21:35:16;7.30;99.90
48912;DHT22;34722;52.108;5.044;2023-04-24T21:37:42;7.40;99.90
48912;DHT22;34722;52.108;5.044;2023-04-24T21:40:08;7.40;99.90
48912;DHT22;34722;52.108;5.044;2023-04-24T21:42:38;7.50;99.90
48912;DHT22;34722;52.108;5.044;2023-04-24T21:45:12;7.50;99.90
48912;DHT22;34722;52.108;5.044;2023-04-24T21:47:47;7.40;99.90
48912;DHT22;34722;52.108;5.044;2023-04-24T21:50:13;7.30;99.90
48912;DHT22;34722;52.108;5.044;2023-04-24T21:52:40;7.20;99.90
48912;DHT22;34722;52.108;5.044;2023-04-24T21:55:06;7.00;99.90
48912;DHT22;34722;52.108;5.044;2023-04-24T21:57:39;6.90;99.90
48912;DHT22;34722;52.108;5.044;2023-04-24T22:00:06;6.80;99.90
48912;DHT22;34722;52.108;5.044;2023-04-24T22:02:34;6.80;99.90
48912;DHT22;34722;52.108;5.044;2023-04-24T22:05:01;6.80;99.90
48912;DHT22;34722;52.108;5.044;2023-04-24T22:07:29;6.80;99.90
48912;DHT22;34722;52.108;5.044;2023-04-24T22:09:55;6.70;99.90
48912;DHT22;34722;52.108;5.044;2023-04-24T22:12:20;6.60;99.90
48912;DHT22;34722;52.108;5.044;2023-04-24T22:14:46;6.60;99.90
48912;DHT22;34722;52.108;5.044;2023-04-24T22:17:11;6.50;99.90
48912;DHT22;34722;52.108;5.044;2023-04-24T22:19:39;6.50;99.90
48912;DHT22;34722;52.108;5.044;2023-04-24T22:22:07;6.50;99.90
48912;DHT22;34722;52.108;5.044;2023-04-24T22:27:33;6.60;99.90
48912;DHT22;34722;52.108;5.044;2023-04-24T22:30:15;6.60;99.90
48912;DHT22;34722;52.108;5.044;2023-04-24T22:32:44;6.50;99.90
48912;DHT22;34722;52.108;5.044;2023-04-24T22:35:12;6.40;99.90
48912;DHT22;34722;52.108;5.044;2023-04-24T22:37:38;6.30;99.90
48912;DHT22;34722;52.108;5.044;2023-04-24T22:40:04;6.20;99.90
48912;DHT22;34722;52.108;5.044;2023-04-24T22:42:32;6.20;99.90
48912;DHT22;34722;52.108;5.044;2023-04-24T22:44:58;6.20;99.90
48912;DHT22;34722;52.108;5.044;2023-04-24T22:47:30;6.10;99.90
48912;DHT22;34722;52.108;5.044;2023-04-24T22:49:56;6.10;99.90
48912;DHT22;34722;52.108;5.044;2023-04-24T22:52:25;6.10;99.90
48912;DHT22;34722;52.108;5.044;2023-04-24T22:58:11;6.00;99.90
48912;DHT22;34722;52.108;5.044;2023-04-24T23:00:40;5.90;99.90
48912;DHT22;34722;52.108;5.044;2023-04-24T23:03:09;5.80;99.90
48912;DHT22;34722;52.108;5.044;2023-04-24T23:05:35;5.70;99.90
48912;DHT22;34722;52.108;5.044;2023-04-24T23:08:01;5.70;99.90
48912;DHT22;34722;52.108;5.044;2023-04-24T23:10:29;5.60;99.90
48912;DHT22;34722;52.108;5.044;2023-04-24T23:12:56;5.60;99.90
48912;DHT22;34722;52.108;5.044;2023-04-24T23:15:22;5.50;99.90
48912;DHT22;34722;52.108;5.044;2023-04-24T23:17:48;5.40;99.90
48912;DHT22;34722;52.108;5.044;2023-04-24T23:20:14;5.30;99.90
48912;DHT22;34722;52.108;5.044;2023-04-24T23:22:40;5.30;99.90
48912;DHT22;34722;52.108;5.044;2023-04-24T23:25:06;5.30;99.90
48912;DHT22;34722;52.108;5.044;2023-04-24T23:27:36;5.30;99.90
48912;DHT22;34722;52.108;5.044;2023-04-24T23:30:03;5.30;99.90
48912;DHT22;34722;52.108;5.044;2023-04-24T23:32:31;5.40;99.90
48912;DHT22;34722;52.108;5.044;2023-04-24T23:34:57;5.60;99.90
48912;DHT22;34722;52.108;5.044;2023-04-24T23:37:23;5.70;99.90
48912;DHT22;34722;52.108;5.044;2023-04-24T23:39:49;5.80;99.90
48912;DHT22;34722;52.108;5.044;2023-04-24T23:42:15;5.90;99.90
48912;DHT22;34722;52.108;5.044;2023-04-24T23:44:41;5.90;99.90
48912;DHT22;34722;52.108;5.044;2023-04-24T23:47:06;6.00;99.90
48912;DHT22;34722;52.108;5.044;2023-04-24T23:49:32;6.00;99.90
48912;DHT22;34722;52.108;5.044;2023-04-24T23:55:23;6.10;99.90
48912;DHT22;34722;52.108;5.044;2023-04-24T23:57:58;6.10;99.90
